Norse Mersey — IBEN — position and weather

sailwx.info

Track history (hours):
 
Tides and Currents Weather Stations Pressure Air Temp Water Temp Dewpoint Dewpoint Depression Visibility Wind Speed Wind Dir Waves Ship Positions

Norse Mersey

Operator: Norse Merchant Ferries

Last reported at 2017-Apr-26 22:19 UTC. Time now 2017-Apr-28 02:33 UTC.
Position N 43°27' E 008°29'.

Length 175 m; draft 5.2 m.

Type: Ship (hazmat cat A). MMSI: 247026000.

Date/timePositionNaut miles runAvg speedWind from/ knotsBaromVisibWave heightAir tempDewpointWater temp
2017-Apr-26 22:19N 43°27' E 008°29'515.2
2017-Apr-26 21:58N 43°33' E 008°29'815.2
2017-Apr-26 21:28N 43°40' E 008°29'715.3
2017-Apr-26 21:00N 43°47' E 008°30'815.2
2017-Apr-26 20:30N 43°55' E 008°31'815.3
2017-Apr-26 20:00N 44°02' E 008°33'714.9
2017-Apr-26 19:30N 44°10' E 008°36'0 0.8
2017-Apr-26 19:00N 44°10' E 008°35'3 6.2
2017-Apr-26 18:30N 44°12' E 008°32'612.5
2017-Apr-26 18:00N 44°18' E 008°31'1 2.3
2017-Apr-26 17:30N 44°19' E 008°29'0 0.0
2017-Apr-26 17:00N 44°19' E 008°29'0 0.0
2017-Apr-26 16:30N 44°19' E 008°29'0 0.0
2017-Apr-26 16:00N 44°19' E 008°29'0 0.0
2017-Apr-26 15:30N 44°19' E 008°29'0 0.0
2017-Apr-26 15:00N 44°19' E 008°29'0 0.0
2017-Apr-26 14:30N 44°19' E 008°29'0 0.0
2017-Apr-26 13:30N 44°19' E 008°29'0 0.0
2017-Apr-26 13:00N 44°19' E 008°29'0 0.0
2017-Apr-26 12:30N 44°19' E 008°29'0 0.0
2017-Apr-26 12:00N 44°19' E 008°29'0 0.0
2017-Apr-26 11:30N 44°19' E 008°29'0 0.0
2017-Apr-26 11:00N 44°19' E 008°29'0 0.0
2017-Apr-26 10:30N 44°19' E 008°29'0 0.0
2017-Apr-26 10:00N 44°19' E 008°29'0 0.0
2017-Apr-26 09:30N 44°19' E 008°29'0 0.0
2017-Apr-26 09:00N 44°19' E 008°29'0 0.0
2017-Apr-26 08:30N 44°19' E 008°29'0 0.0
2017-Apr-26 08:00N 44°19' E 008°29'1 1.0
2017-Apr-26 07:30N 44°19' E 008°30'2 3.7
2017-Apr-26 07:01N 44°18' E 008°32'714.8
2017-Apr-26 06:30N 44°10' E 008°31'815.2
2017-Apr-26 06:00N 44°03' E 008°30'815.2
2017-Apr-26 05:30N 43°55' E 008°30'815.3
2017-Apr-26 05:00N 43°47' E 008°30'815.3
2017-Apr-26 04:30N 43°40' E 008°29'815.5
2017-Apr-26 04:00N 43°32' E 008°29'815.4
2017-Apr-26 03:29N 43°24' E 008°28'6 0.2
2017-Apr-24 21:48N 43°18' E 008°28'415.3
2017-Apr-24 21:31N 43°23' E 008°28'815.3
2017-Apr-24 21:00N 43°30' E 008°29'815.2
2017-Apr-24 20:30N 43°38' E 008°29'715.2
2017-Apr-24 20:00N 43°45' E 008°29'815.3
2017-Apr-24 19:30N 43°53' E 008°30'1015.5
2017-Apr-24 18:52N 44°03' E 008°31'515.3
2017-Apr-24 18:30N 44°09' E 008°31'815.2
2017-Apr-24 18:01N 44°16' E 008°31'3 5.2
2017-Apr-24 17:29N 44°19' E 008°29'0 0.0
2017-Apr-24 16:59N 44°19' E 008°29'0 0.0
2017-Apr-24 16:26N 44°19' E 008°29'0 0.0
2017-Apr-24 15:59N 44°19' E 008°29'0 0.0
2017-Apr-24 15:26N 44°19' E 008°29'0 0.0
2017-Apr-24 14:56N 44°19' E 008°29'0 0.0
2017-Apr-24 14:26N 44°19' E 008°29'0 0.0
2017-Apr-24 13:26N 44°19' E 008°29'0 0.0
2017-Apr-24 12:56N 44°19' E 008°29'0 0.0
2017-Apr-24 12:26N 44°19' E 008°29'0 0.0
2017-Apr-24 11:56N 44°19' E 008°29'0 0.0
2017-Apr-24 11:26N 44°19' E 008°29'0 0.0
2017-Apr-24 10:56N 44°19' E 008°29'0 0.0
2017-Apr-24 10:26N 44°19' E 008°29'0 0.0
2017-Apr-24 09:56N 44°19' E 008°29'0 0.0
2017-Apr-24 09:26N 44°19' E 008°29'0 0.0
2017-Apr-24 08:56N 44°19' E 008°29'0 0.0
2017-Apr-24 08:26N 44°19' E 008°29'0 0.0
2017-Apr-24 07:56N 44°19' E 008°29'0 0.0
2017-Apr-24 07:29N 44°19' E 008°29'0 0.0
2017-Apr-24 06:59N 44°19' E 008°29'0 0.0
2017-Apr-24 06:29N 44°19' E 008°29'0 0.0
2017-Apr-24 05:59N 44°19' E 008°29'0 0.0
2017-Apr-24 05:29N 44°19' E 008°29'0 0.0
2017-Apr-24 04:59N 44°19' E 008°29'0 0.0
2017-Apr-24 04:29N 44°19' E 008°29'1 1.4
2017-Apr-24 04:00N 44°19' E 008°30'4 7.1
2017-Apr-24 03:30N 44°16' E 008°32'714.0
2017-Apr-24 03:00N 44°09' E 008°31'713.8
2017-Apr-24 02:29N 44°02' E 008°31'913.5
2017-Apr-24 01:52N 43°53' E 008°30'513.8
2017-Apr-24 01:30N 43°48' E 008°30'714.0
2017-Apr-24 01:01N 43°41' E 008°29'713.9
2017-Apr-24 00:30N 43°34' E 008°29'19 0.4
2017-Apr-21 22:10N 43°15' E 008°29'214.9
2017-Apr-21 22:00N 43°18' E 008°29'714.8
2017-Apr-21 21:30N 43°25' E 008°29'814.9
2017-Apr-21 20:58N 43°33' E 008°29'815.1
2017-Apr-21 20:28N 43°41' E 008°30'715.2
2017-Apr-21 20:00N 43°48' E 008°30'815.1
2017-Apr-21 19:30N 43°55' E 008°30'715.0
2017-Apr-21 19:00N 44°03' E 008°31'714.8
2017-Apr-21 18:30N 44°10' E 008°31'714.8
2017-Apr-21 18:00N 44°17' E 008°31'2 2.6
2017-Apr-21 17:25N 44°19' E 008°29'0 0.0
2017-Apr-21 16:49N 44°19' E 008°29'0 0.0
2017-Apr-21 16:25N 44°19' E 008°29'0 0.0
2017-Apr-21 15:55N 44°19' E 008°29'0 0.0
2017-Apr-21 15:25N 44°19' E 008°29'0 0.0
2017-Apr-21 14:55N 44°19' E 008°29'0 0.0
2017-Apr-21 14:28N 44°19' E 008°29'0 0.0
2017-Apr-21 13:25N 44°19' E 008°29'0 0.0
2017-Apr-21 12:58N 44°19' E 008°29'0 0.0
2017-Apr-21 12:25N 44°19' E 008°29'0 0.0
2017-Apr-21 11:58N 44°19' E 008°29'0 0.0
2017-Apr-21 11:28N 44°19' E 008°29'0 0.0
2017-Apr-21 10:58N 44°19' E 008°29'0 0.0
2017-Apr-21 10:25N 44°19' E 008°29'0 0.0
2017-Apr-21 09:58N 44°19' E 008°29'0 0.0
2017-Apr-21 09:25N 44°19' E 008°29'0 0.0
2017-Apr-21 08:58N 44°19' E 008°29'0 0.0
2017-Apr-21 08:25N 44°19' E 008°29'0 0.0
2017-Apr-21 07:58N 44°19' E 008°29'0 0.9
2017-Apr-21 07:30N 44°19' E 008°30'3 7.1
2017-Apr-21 07:01N 44°16' E 008°31'815.1
2017-Apr-21 06:30N 44°08' E 008°31'815.5
2017-Apr-21 06:00N 44°00' E 008°30'815.2
2017-Apr-21 05:31N 43°53' E 008°30'815.3
2017-Apr-21 05:00N 43°45' E 008°30'815.5
2017-Apr-21 04:28N 43°37' E 008°29'8 0.3
2017-Apr-19 21:59N 43°28' E 008°29'815.8
2017-Apr-19 21:29N 43°36' E 008°29'815.8
2017-Apr-19 21:00N 43°44' E 008°30'815.8
2017-Apr-19 20:30N 43°52' E 008°30'916.2
2017-Apr-19 19:55N 44°01' E 008°30'615.8
2017-Apr-19 19:30N 44°08' E 008°31'815.8
2017-Apr-19 19:00N 44°16' E 008°31'3 5.5
2017-Apr-19 18:24N 44°19' E 008°30'0 0.0
2017-Apr-19 17:57N 44°19' E 008°30'0 0.0
2017-Apr-19 17:24N 44°19' E 008°30'0 0.0
2017-Apr-19 16:57N 44°19' E 008°30'0 0.0
2017-Apr-19 16:27N 44°19' E 008°30'0 0.0
2017-Apr-19 15:57N 44°19' E 008°30'0 0.0
2017-Apr-19 15:27N 44°19' E 008°30'0 0.0
2017-Apr-19 14:57N 44°19' E 008°30'0 0.0
2017-Apr-19 14:21N 44°19' E 008°30'0 0.0
2017-Apr-19 13:25N 44°19' E 008°30'0 0.0
2017-Apr-19 12:58N 44°19' E 008°30'0 0.0
2017-Apr-19 12:28N 44°19' E 008°30'0 0.0
2017-Apr-19 11:58N 44°19' E 008°30'0 0.0
2017-Apr-19 11:28N 44°19' E 008°30'0 0.0
2017-Apr-19 10:58N 44°19' E 008°30'0 0.0
2017-Apr-19 10:28N 44°19' E 008°30'0 0.1
2017-Apr-19 10:01N 44°19' E 008°30'1 2.5
2017-Apr-19 09:30N 44°18' E 008°31'611.7
2017-Apr-19 09:00N 44°12' E 008°31'713.7
2017-Apr-19 08:30N 44°05' E 008°31'713.6
2017-Apr-19 08:00N 43°58' E 008°30'713.6
2017-Apr-19 07:30N 43°52' E 008°30'713.7
2017-Apr-19 07:00N 43°45' E 008°29'  
Track history (hours):
 
Tides and Currents Weather Stations Pressure Air Temp Water Temp Dewpoint Dewpoint Depression Visibility Wind Speed Wind Dir Waves Ship Positions

Norse Mersey

Operator: Norse Merchant Ferries

Last reported at 2017-Apr-26 22:19 UTC. Time now 2017-Apr-28 02:33 UTC.
Position N 43°27' E 008°29'.

Length 175 m; draft 5.2 m.

Type: Ship (hazmat cat A). MMSI: 247026000.

Date/timePositionNaut miles runAvg speedWind from/ knotsBaromVisibWave heightAir tempDewpointWater temp
2017-Apr-26 22:19N 43°27' E 008°29'515.2
2017-Apr-26 21:58N 43°33' E 008°29'815.2
2017-Apr-26 21:28N 43°40' E 008°29'715.3
2017-Apr-26 21:00N 43°47' E 008°30'815.2
2017-Apr-26 20:30N 43°55' E 008°31'815.3
2017-Apr-26 20:00N 44°02' E 008°33'714.9
2017-Apr-26 19:30N 44°10' E 008°36'0 0.8
2017-Apr-26 19:00N 44°10' E 008°35'3 6.2
2017-Apr-26 18:30N 44°12' E 008°32'612.5
2017-Apr-26 18:00N 44°18' E 008°31'1 2.3
2017-Apr-26 17:30N 44°19' E 008°29'0 0.0
2017-Apr-26 17:00N 44°19' E 008°29'0 0.0
2017-Apr-26 16:30N 44°19' E 008°29'0 0.0
2017-Apr-26 16:00N 44°19' E 008°29'0 0.0
2017-Apr-26 15:30N 44°19' E 008°29'0 0.0
2017-Apr-26 15:00N 44°19' E 008°29'0 0.0
2017-Apr-26 14:30N 44°19' E 008°29'0 0.0
2017-Apr-26 13:30N 44°19' E 008°29'0 0.0
2017-Apr-26 13:00N 44°19' E 008°29'0 0.0
2017-Apr-26 12:30N 44°19' E 008°29'0 0.0
2017-Apr-26 12:00N 44°19' E 008°29'0 0.0
2017-Apr-26 11:30N 44°19' E 008°29'0 0.0
2017-Apr-26 11:00N 44°19' E 008°29'0 0.0
2017-Apr-26 10:30N 44°19' E 008°29'0 0.0
2017-Apr-26 10:00N 44°19' E 008°29'0 0.0
2017-Apr-26 09:30N 44°19' E 008°29'0 0.0
2017-Apr-26 09:00N 44°19' E 008°29'0 0.0
2017-Apr-26 08:30N 44°19' E 008°29'0 0.0
2017-Apr-26 08:00N 44°19' E 008°29'1 1.0
2017-Apr-26 07:30N 44°19' E 008°30'2 3.7
2017-Apr-26 07:01N 44°18' E 008°32'714.8
2017-Apr-26 06:30N 44°10' E 008°31'815.2
2017-Apr-26 06:00N 44°03' E 008°30'815.2
2017-Apr-26 05:30N 43°55' E 008°30'815.3
2017-Apr-26 05:00N 43°47' E 008°30'815.3
2017-Apr-26 04:30N 43°40' E 008°29'815.5
2017-Apr-26 04:00N 43°32' E 008°29'815.4
2017-Apr-26 03:29N 43°24' E 008°28'6 0.2
2017-Apr-24 21:48N 43°18' E 008°28'415.3
2017-Apr-24 21:31N 43°23' E 008°28'815.3
2017-Apr-24 21:00N 43°30' E 008°29'815.2
2017-Apr-24 20:30N 43°38' E 008°29'715.2
2017-Apr-24 20:00N 43°45' E 008°29'815.3
2017-Apr-24 19:30N 43°53' E 008°30'1015.5
2017-Apr-24 18:52N 44°03' E 008°31'515.3
2017-Apr-24 18:30N 44°09' E 008°31'815.2
2017-Apr-24 18:01N 44°16' E 008°31'3 5.2
2017-Apr-24 17:29N 44°19' E 008°29'0 0.0
2017-Apr-24 16:59N 44°19' E 008°29'0 0.0
2017-Apr-24 16:26N 44°19' E 008°29'0 0.0
2017-Apr-24 15:59N 44°19' E 008°29'0 0.0
2017-Apr-24 15:26N 44°19' E 008°29'0 0.0
2017-Apr-24 14:56N 44°19' E 008°29'0 0.0
2017-Apr-24 14:26N 44°19' E 008°29'0 0.0
2017-Apr-24 13:26N 44°19' E 008°29'0 0.0
2017-Apr-24 12:56N 44°19' E 008°29'0 0.0
2017-Apr-24 12:26N 44°19' E 008°29'0 0.0
2017-Apr-24 11:56N 44°19' E 008°29'0 0.0
2017-Apr-24 11:26N 44°19' E 008°29'0 0.0
2017-Apr-24 10:56N 44°19' E 008°29'0 0.0
2017-Apr-24 10:26N 44°19' E 008°29'0 0.0
2017-Apr-24 09:56N 44°19' E 008°29'0 0.0
2017-Apr-24 09:26N 44°19' E 008°29'0 0.0
2017-Apr-24 08:56N 44°19' E 008°29'0 0.0
2017-Apr-24 08:26N 44°19' E 008°29'0 0.0
2017-Apr-24 07:56N 44°19' E 008°29'0 0.0
2017-Apr-24 07:29N 44°19' E 008°29'0 0.0
2017-Apr-24 06:59N 44°19' E 008°29'0 0.0
2017-Apr-24 06:29N 44°19' E 008°29'0 0.0
2017-Apr-24 05:59N 44°19' E 008°29'0 0.0
2017-Apr-24 05:29N 44°19' E 008°29'0 0.0
2017-Apr-24 04:59N 44°19' E 008°29'0 0.0
2017-Apr-24 04:29N 44°19' E 008°29'1 1.4
2017-Apr-24 04:00N 44°19' E 008°30'4 7.1
2017-Apr-24 03:30N 44°16' E 008°32'714.0
2017-Apr-24 03:00N 44°09' E 008°31'713.8
2017-Apr-24 02:29N 44°02' E 008°31'913.5
2017-Apr-24 01:52N 43°53' E 008°30'513.8
2017-Apr-24 01:30N 43°48' E 008°30'714.0
2017-Apr-24 01:01N 43°41' E 008°29'713.9
2017-Apr-24 00:30N 43°34' E 008°29'19 0.4
2017-Apr-21 22:10N 43°15' E 008°29'214.9
2017-Apr-21 22:00N 43°18' E 008°29'714.8
2017-Apr-21 21:30N 43°25' E 008°29'814.9
2017-Apr-21 20:58N 43°33' E 008°29'815.1
2017-Apr-21 20:28N 43°41' E 008°30'715.2
2017-Apr-21 20:00N 43°48' E 008°30'815.1
2017-Apr-21 19:30N 43°55' E 008°30'715.0
2017-Apr-21 19:00N 44°03' E 008°31'714.8
2017-Apr-21 18:30N 44°10' E 008°31'714.8
2017-Apr-21 18:00N 44°17' E 008°31'2 2.6
2017-Apr-21 17:25N 44°19' E 008°29'0 0.0
2017-Apr-21 16:49N 44°19' E 008°29'0 0.0
2017-Apr-21 16:25N 44°19' E 008°29'0 0.0
2017-Apr-21 15:55N 44°19' E 008°29'0 0.0
2017-Apr-21 15:25N 44°19' E 008°29'0 0.0
2017-Apr-21 14:55N 44°19' E 008°29'0 0.0
2017-Apr-21 14:28N 44°19' E 008°29'0 0.0
2017-Apr-21 13:25N 44°19' E 008°29'0 0.0
2017-Apr-21 12:58N 44°19' E 008°29'0 0.0
2017-Apr-21 12:25N 44°19' E 008°29'0 0.0
2017-Apr-21 11:58N 44°19' E 008°29'0 0.0
2017-Apr-21 11:28N 44°19' E 008°29'0 0.0
2017-Apr-21 10:58N 44°19' E 008°29'0 0.0
2017-Apr-21 10:25N 44°19' E 008°29'0 0.0
2017-Apr-21 09:58N 44°19' E 008°29'0 0.0
2017-Apr-21 09:25N 44°19' E 008°29'0 0.0
2017-Apr-21 08:58N 44°19' E 008°29'0 0.0
2017-Apr-21 08:25N 44°19' E 008°29'0 0.0
2017-Apr-21 07:58N 44°19' E 008°29'0 0.9
2017-Apr-21 07:30N 44°19' E 008°30'3 7.1
2017-Apr-21 07:01N 44°16' E 008°31'815.1
2017-Apr-21 06:30N 44°08' E 008°31'815.5
2017-Apr-21 06:00N 44°00' E 008°30'815.2
2017-Apr-21 05:31N 43°53' E 008°30'815.3
2017-Apr-21 05:00N 43°45' E 008°30'815.5
2017-Apr-21 04:28N 43°37' E 008°29'8 0.3
2017-Apr-19 21:59N 43°28' E 008°29'815.8
2017-Apr-19 21:29N 43°36' E 008°29'815.8
2017-Apr-19 21:00N 43°44' E 008°30'815.8
2017-Apr-19 20:30N 43°52' E 008°30'916.2
2017-Apr-19 19:55N 44°01' E 008°30'615.8
2017-Apr-19 19:30N 44°08' E 008°31'815.8
2017-Apr-19 19:00N 44°16' E 008°31'3 5.5
2017-Apr-19 18:24N 44°19' E 008°30'0 0.0
2017-Apr-19 17:57N 44°19' E 008°30'0 0.0
2017-Apr-19 17:24N 44°19' E 008°30'0 0.0
2017-Apr-19 16:57N 44°19' E 008°30'0 0.0
2017-Apr-19 16:27N 44°19' E 008°30'0 0.0
2017-Apr-19 15:57N 44°19' E 008°30'0 0.0
2017-Apr-19 15:27N 44°19' E 008°30'0 0.0
2017-Apr-19 14:57N 44°19' E 008°30'0 0.0
2017-Apr-19 14:21N 44°19' E 008°30'0 0.0
2017-Apr-19 13:25N 44°19' E 008°30'0 0.0
2017-Apr-19 12:58N 44°19' E 008°30'0 0.0
2017-Apr-19 12:28N 44°19' E 008°30'0 0.0
2017-Apr-19 11:58N 44°19' E 008°30'0 0.0
2017-Apr-19 11:28N 44°19' E 008°30'0 0.0
2017-Apr-19 10:58N 44°19' E 008°30'0 0.0
2017-Apr-19 10:28N 44°19' E 008°30'0 0.1
2017-Apr-19 10:01N 44°19' E 008°30'1 2.5
2017-Apr-19 09:30N 44°18' E 008°31'611.7
2017-Apr-19 09:00N 44°12' E 008°31'713.7
2017-Apr-19 08:30N 44°05' E 008°31'713.6
2017-Apr-19 08:00N 43°58' E 008°30'713.6
2017-Apr-19 07:30N 43°52' E 008°30'713.7
2017-Apr-19 07:00N 43°45' E 008°29'  

Dump ship's entire track history